Time;durP1;ratioP1;P1;durP2;ratioP2;P2;SDS_P1;SDS_P2;PMS_P1;PMS_P2;Temp;Humidity;BMP_temperature;BMP_pressure;BME280_temperature;BME280_humidity;BME280_pressure;Samples;Min_cycle;Max_cycle;Signal;HPM_P1;HPM_P2
2022/11/02 00:01:50;;;;;;;31.50;14.80;;;;;;;5.05;66.12;99594.14;106812;1284;138203;-60
2022/11/02 00:04:17;;;;;;;31.00;16.90;;;;;;;5.04;66.32;99595.41;106864;1302;22983;-60
2022/11/02 00:06:44;;;;;;;35.70;17.80;;;;;;;5.04;66.28;99590.79;106870;1302;22315;-60
2022/11/02 00:09:10;;;;;;;45.30;19.40;;;;;;;5.06;66.51;99584.60;106729;1302;137579;-60
2022/11/02 00:11:37;;;;;;;37.50;18.50;;;;;;;5.07;66.55;99580.20;106895;1293;22128;-60
2022/11/02 00:14:04;;;;;;;34.00;17.90;;;;;;;5.07;66.56;99575.74;106748;1302;139823;-60
2022/11/02 00:16:31;;;;;;;31.70;17.60;;;;;;;5.07;66.41;99575.73;106838;1301;22212;-60
2022/11/02 00:18:57;;;;;;;40.80;17.20;;;;;;;5.06;66.53;99577.70;106862;1284;22256;-60
2022/11/02 00:21:24;;;;;;;37.10;17.70;;;;;;;5.09;66.32;99573.73;106745;1299;137796;-60
2022/11/02 00:23:52;;;;;;;33.70;16.50;;;;;;;5.13;66.46;99570.80;106865;1277;23222;-60
2022/11/02 00:26:18;;;;;;;32.80;16.80;;;;;;;5.19;66.25;99573.86;106715;1302;138095;-60
2022/11/02 00:28:45;;;;;;;34.00;15.70;;;;;;;5.23;66.34;99568.38;106895;1302;22308;-60
2022/11/02 00:31:12;;;;;;;32.80;16.50;;;;;;;5.26;66.58;99565.11;106781;1302;22206;-61
2022/11/02 00:33:38;;;;;;;30.70;16.20;;;;;;;5.25;66.40;99558.17;106713;1302;138211;-61
2022/11/02 00:36:06;;;;;;;33.20;16.40;;;;;;;5.21;66.47;99561.50;106893;1302;22108;-60
2022/11/02 00:38:33;;;;;;;38.20;17.70;;;;;;;5.10;66.23;99556.79;106739;1302;138272;-60
2022/11/02 00:41:00;;;;;;;30.30;16.10;;;;;;;5.08;66.95;99559.66;106810;1300;22134;-60
2022/11/02 00:43:27;;;;;;;31.70;16.20;;;;;;;5.03;66.77;99554.45;106819;1300;22188;-60
2022/11/02 00:45:53;;;;;;;31.00;16.00;;;;;;;4.95;66.88;99556.95;106744;1302;137188;-60
2022/11/02 00:48:21;;;;;;;28.90;16.80;;;;;;;4.88;66.90;99556.73;106890;1302;22113;-60
2022/11/02 00:50:48;;;;;;;28.10;15.90;;;;;;;4.84;67.01;99561.88;106715;1301;139190;-60
2022/11/02 00:53:15;;;;;;;27.10;15.20;;;;;;;4.81;67.28;99559.39;106791;1302;22990;-60
2022/11/02 00:55:48;;;;;;;28.20;14.50;;;;;;;4.78;67.43;99554.30;106747;1280;138185;-59
2022/11/02 00:58:15;;;;;;;30.80;16.30;;;;;;;4.75;67.31;99553.45;106821;1302;23459;-60
2022/11/02 01:00:42;;;;;;;29.30;14.30;;;;;;;4.73;67.43;99555.02;106805;1302;22105;-60
2022/11/02 01:03:08;;;;;;;25.90;14.30;;;;;;;4.70;67.65;99549.81;106695;1301;138121;-60
2022/11/02 01:05:36;;;;;;;30.10;15.70;;;;;;;4.64;67.88;99550.92;106862;1302;22143;-61
2022/11/02 01:08:03;;;;;;;29.70;15.20;;;;;;;4.58;67.81;99554.55;106746;1302;138200;-60
2022/11/02 01:10:30;;;;;;;25.00;13.20;;;;;;;4.55;68.17;99559.13;106842;1299;22245;-60
2022/11/02 01:12:59;;;;;;;24.60;13.90;;;;;;;4.52;68.28;99563.38;106822;1290;22983;-61
2022/11/02 01:15:26;;;;;;;30.40;15.30;;;;;;;4.49;68.39;99563.11;106721;1302;138904;-60
2022/11/02 01:17:53;;;;;;;29.90;15.20;;;;;;;4.47;68.49;99560.63;106867;1302;22203;-60
2022/11/02 01:20:20;;;;;;;25.30;14.00;;;;;;;4.47;68.79;99559.55;106857;1300;138706;-60
2022/11/02 01:22:46;;;;;;;25.90;14.10;;;;;;;4.46;68.91;99559.73;106944;1300;22136;-60
2022/11/02 01:25:13;;;;;;;26.60;14.40;;;;;;;4.43;69.03;99556.44;106874;1302;22174;-60
2022/11/02 01:27:40;;;;;;;27.70;14.50;;;;;;;4.38;69.02;99553.06;106871;1300;138812;-60
2022/11/02 01:30:07;;;;;;;31.00;15.80;;;;;;;4.33;69.30;99547.91;106875;1302;22927;-60
2022/11/02 01:32:35;;;;;;;25.60;13.30;;;;;;;4.27;69.17;99546.83;106873;1299;138879;-60
2022/11/02 01:35:02;;;;;;;26.00;14.40;;;;;;;4.21;69.47;99546.15;106835;1302;23023;-60
2022/11/02 01:37:28;;;;;;;30.00;14.40;;;;;;;4.19;69.51;99544.36;106850;1300;22183;-60
2022/11/02 01:39:55;;;;;;;35.90;15.60;;;;;;;4.15;69.68;99542.30;106812;1300;138943;-60
2022/11/02 01:42:23;;;;;;;26.20;14.60;;;;;;;4.11;69.77;99539.65;106833;1287;22130;-60
2022/11/02 01:44:50;;;;;;;30.10;14.90;;;;;;;4.11;69.84;99536.70;106774;1294;138123;-60
2022/11/02 01:47:21;;;;;;;24.60;13.00;;;;;;;4.10;69.96;99530.70;106968;1292;22311;-60
2022/11/02 01:49:50;;;;;;;25.30;13.10;;;;;;;4.08;69.79;99528.55;106700;1302;139432;-60
2022/11/02 01:52:22;;;;;;;22.50;11.90;;;;;;;4.02;69.92;99531.75;106928;1300;22313;-60
2022/11/02 01:54:52;;;;;;;25.90;13.70;;;;;;;3.94;69.98;99529.91;106881;1302;22875;-60
2022/11/02 01:57:20;;;;;;;25.10;12.30;;;;;;;3.91;70.31;99532.61;106753;1300;138448;-61
2022/11/02 01:59:56;;;;;;;24.30;13.90;;;;;;;3.91;70.76;99531.95;106702;1289;23123;-60
2022/11/02 02:02:23;;;;;;;22.90;13.30;;;;;;;3.91;70.65;99530.83;106853;1300;137942;-60
2022/11/02 02:04:53;;;;;;;26.50;14.30;;;;;;;3.88;70.76;99534.88;106879;1300;22094;-60
2022/11/02 02:07:23;;;;;;;32.00;15.70;;;;;;;3.87;70.85;99534.35;106802;1302;22871;-60
2022/11/02 02:09:50;;;;;;;24.30;14.20;;;;;;;3.85;70.96;99531.66;106614;1302;138186;-60
2022/11/02 02:12:17;;;;;;;26.90;15.20;;;;;;;3.84;70.93;99527.02;106818;1300;22160;-60
2022/11/02 02:14:44;;;;;;;;;;;;;;;3.81;70.81;99521.47;106838;1302;138960;-60
2022/11/02 02:17:58;;;;;;;30.80;15.80;;;;;;;3.79;71.17;99522.17;106827;1302;22860;-60
2022/11/02 02:20:43;;;;;;;24.00;13.00;;;;;;;3.77;71.24;99518.70;106271;1308;138406;-60
2022/11/02 02:23:35;;;;;;;29.80;15.70;;;;;;;3.76;71.46;99518.66;106387;1308;22281;-61
2022/11/02 02:26:47;;;;;;;28.20;13.60;;;;;;;3.74;71.42;99515.17;104643;1300;137565;-60
2022/11/02 02:29:26;;;;;;;27.10;13.40;;;;;;;3.70;71.18;99511.95;101155;1293;22481;-59
2022/11/02 02:32:26;;;;;;;33.50;15.60;;;;;;;3.64;71.18;99516.35;101060;1306;137453;-59
2022/11/02 02:35:23;;;;;;;28.50;14.30;;;;;;;3.59;71.51;99512.13;101180;1307;24537;-59
2022/11/02 02:37:59;;;;;;;24.10;12.80;;;;;;;3.53;71.67;99504.42;100998;1310;138502;-59
2022/11/02 02:40:33;;;;;;;24.60;13.30;;;;;;;3.47;71.82;99504.04;101113;1305;24322;-59
2022/11/02 02:43:32;;;;;;;31.10;16.40;;;;;;;3.39;71.86;99501.74;101337;1321;22572;-59
2022/11/02 02:46:04;;;;;;;28.90;15.80;;;;;;;3.26;72.40;99482.67;101040;1296;137785;-59
2022/11/02 02:48:31;;;;;;;27.00;15.30;;;;;;;3.32;72.44;99491.98;101178;1311;22633;-59
2022/11/02 02:51:04;;;;;;;30.60;15.60;;;;;;;3.30;72.81;99493.63;101047;1300;137643;-59
2022/11/02 02:53:40;;;;;;;35.50;16.20;;;;;;;3.30;72.71;99495.90;101721;1294;24247;-59
2022/11/02 02:56:07;;;;;;;29.30;15.30;;;;;;;3.29;72.87;99493.08;106102;1308;138221;-60
2022/11/02 02:59:02;;;;;;;;;;;;;;;3.31;73.06;99491.92;106070;1308;22369;-60
2022/11/02 03:01:30;;;;;;;27.50;13.90;;;;;;;3.30;73.11;99495.23;106175;1310;22260;-60
2022/11/02 03:03:57;;;;;;;26.30;14.80;;;;;;;3.28;73.04;99496.69;106066;1300;137905;-60
2022/11/02 03:06:30;;;;;;;27.00;14.70;;;;;;;3.25;73.17;99498.30;106205;1309;22273;-60
2022/11/02 03:09:08;;;;;;;29.30;14.70;;;;;;;3.23;73.11;99507.21;106084;1308;139719;-60
2022/11/02 03:11:44;;;;;;;30.20;15.40;;;;;;;3.22;73.04;99510.06;106300;1309;22183;-60
2022/11/02 03:14:16;;;;;;;33.80;16.80;;;;;;;3.24;73.49;99514.58;106011;1310;139666;-60
2022/11/02 03:17:12;;;;;;;28.70;15.50;;;;;;;3.29;73.40;99511.64;106162;1310;22927;-60
2022/11/02 03:20:20;;;;;;;32.90;14.60;;;;;;;3.36;73.27;99508.95;106163;1303;22340;-60
2022/11/02 03:23:02;;;;;;;25.00;14.40;;;;;;;3.38;73.40;99507.63;105547;1316;22212;-60
2022/11/02 03:25:37;;;;;;;27.20;13.90;;;;;;;3.42;73.21;99504.92;105421;1316;22187;-60
2022/11/02 03:28:41;;;;;;;34.70;15.50;;;;;;;3.39;73.01;99503.58;105264;1316;137090;-60
2022/11/02 03:31:32;;;;;;;31.40;16.10;;;;;;;3.33;72.99;99499.34;105484;1308;22251;-60
2022/11/02 03:34:07;;;;;;;35.10;18.50;;;;;;;3.30;73.31;99499.61;105346;1316;137434;-60
2022/11/02 03:36:59;;;;;;;28.10;14.50;;;;;;;3.33;73.32;99499.67;102923;1316;22499;-58
2022/11/02 03:39:34;;;;;;;28.40;13.80;;;;;;;3.28;73.25;99501.08;100869;1319;137411;-59
2022/11/02 03:42:02;;;;;;;23.30;13.00;;;;;;;3.22;73.14;99501.08;105136;1315;23626;-61
2022/11/02 03:44:29;;;;;;;35.20;17.20;;;;;;;3.18;73.17;99498.27;105048;1316;138756;-60
2022/11/02 03:46:58;;;;;;;29.00;13.30;;;;;;;3.18;73.51;99496.69;105466;1308;22186;-60
2022/11/02 03:49:26;;;;;;;27.90;13.90;;;;;;;3.19;73.41;99493.70;105505;1316;22405;-60
2022/11/02 03:51:53;;;;;;;26.50;14.80;;;;;;;3.19;73.59;99492.09;105408;1309;138101;-60
2022/11/02 03:54:45;;;;;;;27.80;13.20;;;;;;;3.20;73.51;99489.94;105319;1316;22198;-60
2022/11/02 03:57:18;;;;;;;29.80;14.40;;;;;;;3.21;73.78;99491.68;105341;1316;137650;-60
2022/11/02 03:59:45;;;;;;;28.30;15.20;;;;;;;3.21;73.65;99497.35;105860;1308;22241;-60
2022/11/02 04:02:12;;;;;;;26.50;15.80;;;;;;;3.23;73.61;99493.54;106321;1302;138370;-60
2022/11/02 04:04:49;;;;;;;27.40;14.90;;;;;;;3.25;73.61;99488.86;106043;1308;22375;-60
2022/11/02 04:07:19;;;;;;;27.00;13.60;;;;;;;3.24;73.71;99485.92;106212;1303;22186;-61
2022/11/02 04:09:46;;;;;;;30.00;15.60;;;;;;;3.23;73.75;99478.42;106175;1301;137854;-60
2022/11/02 04:14:59;;;;;;;34.80;15.80;;;;;;;3.23;73.97;99477.72;106259;1308;139059;-60
2022/11/02 04:20:13;;;;;;;28.40;14.90;;;;;;;3.27;74.40;99477.75;106693;1299;137620;-61
2022/11/02 04:25:25;;;;;;;28.30;14.00;;;;;;;3.30;74.98;99462.66;106932;1299;22115;-61
2022/11/02 04:28:05;;;;;;;28.20;16.10;;;;;;;3.35;75.25;99472.08;106777;1302;137847;-60
2022/11/02 04:30:32;;;;;;;27.10;14.50;;;;;;;3.39;75.40;99473.48;106839;1303;22109;-67
2022/11/02 04:35:54;;;;;;;34.50;16.30;;;;;;;3.52;76.00;99467.92;105605;1286;22839;-60
2022/11/02 04:38:40;;;;;;;27.90;16.10;;;;;;;3.59;75.92;99469.94;102501;1308;137649;-59
2022/11/02 04:44:06;;;;;;;57.00;24.40;;;;;;;3.71;75.53;99467.23;102417;1307;139241;-59
2022/11/02 04:46:34;;;;;;;45.70;21.70;;;;;;;3.75;75.15;99464.38;106586;1306;22151;-60
2022/11/02 04:49:01;;;;;;;32.40;17.40;;;;;;;3.81;75.37;99464.91;106831;1302;22172;-61
2022/11/02 04:51:29;;;;;;;32.60;18.50;;;;;;;3.86;75.80;99458.52;106645;1297;138426;-61
2022/11/02 04:53:57;;;;;;;29.90;16.60;;;;;;;3.91;75.91;99450.98;106763;1293;22187;-61
2022/11/02 04:56:25;;;;;;;34.10;18.30;;;;;;;3.95;75.81;99450.70;106761;1302;138169;-61
2022/11/02 04:58:55;;;;;;;42.30;19.60;;;;;;;3.99;75.91;99446.45;106808;1302;23037;-61
2022/11/02 05:01:23;;;;;;;60.30;21.50;;;;;;;4.00;75.61;99444.41;106780;1285;22105;-60
2022/11/02 05:03:51;;;;;;;63.60;24.50;;;;;;;4.02;75.44;99445.07;106711;1301;139044;-61
2022/11/02 05:08:58;;;;;;;73.40;26.70;;;;;;;4.09;74.98;99439.95;99537;1337;546313;-59
2022/11/02 05:11:25;;;;;;;95.40;32.50;;;;;;;4.08;74.79;99439.83;101411;1300;24255;-59
2022/11/02 05:13:53;;;;;;;120.10;39.20;;;;;;;4.10;74.68;99438.41;101071;1322;137998;-59
2022/11/02 05:16:20;;;;;;;123.10;38.60;;;;;;;4.10;74.44;99434.55;101023;1301;24299;-59
2022/11/02 05:18:48;;;;;;;102.90;33.20;;;;;;;4.11;74.34;99430.31;101040;1311;22549;-59
2022/11/02 05:21:16;;;;;;;72.30;27.50;;;;;;;4.11;74.32;99431.48;100964;1299;136774;-60
2022/11/02 05:23:43;;;;;;;;;;;;;;;4.11;74.08;99431.98;100657;1307;921746;-59
2022/11/02 05:26:10;;;;;;;99.30;33.00;;;;;;;4.09;74.27;99426.34;101593;1304;124092;-60
2022/11/02 05:28:40;;;;;;;86.80;29.30;;;;;;;4.06;74.33;99423.04;101272;1310;22518;-59
2022/11/02 05:31:07;;;;;;;;;;;;;;;4.04;74.34;99427.51;101652;1305;24384;-59
2022/11/02 05:33:34;;;;;;;84.80;33.40;;;;;;;4.00;74.39;99430.89;101269;1298;125280;-59
2022/11/02 05:36:05;;;;;;;83.00;29.00;;;;;;;3.97;74.34;99429.41;101460;1308;22603;-59
2022/11/02 05:38:33;;;;;;;95.50;26.70;;;;;;;3.97;74.18;99431.49;105732;1306;137912;-60
2022/11/02 05:41:00;;;;;;;74.00;27.50;;;;;;;3.97;74.46;99434.64;105926;1312;23106;-60
2022/11/02 05:43:31;;;;;;;71.20;26.60;;;;;;;3.97;74.07;99435.52;105791;1314;22158;-60
2022/11/02 05:46:00;;;;;;;89.40;28.90;;;;;;;3.98;74.44;99437.34;105785;1314;137841;-60
2022/11/02 05:48:28;;;;;;;76.60;27.80;;;;;;;3.99;74.52;99438.86;105940;1312;23583;-60
2022/11/02 05:50:59;;;;;;;64.10;26.50;;;;;;;3.97;74.34;99435.36;105567;1314;137069;-60
2022/11/02 05:53:26;;;;;;;73.10;31.70;;;;;;;4.03;74.46;99442.30;105849;1314;22291;-60
2022/11/02 05:55:57;;;;;;;118.60;54.10;;;;;;;4.06;74.21;99441.79;105715;1313;138391;-60
2022/11/02 05:58:24;;;;;;;103.20;48.10;;;;;;;4.07;73.77;99443.07;106021;1312;22355;-60
2022/11/02 06:00:51;;;;;;;98.60;45.70;;;;;;;4.07;73.76;99441.41;105942;1307;22160;-60
2022/11/02 06:03:18;;;;;;;82.90;39.50;;;;;;;4.10;73.71;99442.27;105872;1314;138468;-61
2022/11/02 06:05:45;;;;;;;82.60;37.60;;;;;;;4.14;73.73;99445.65;105749;1314;23115;-61
2022/11/02 06:08:12;;;;;;;69.50;33.00;;;;;;;4.21;73.80;99447.58;105714;1306;137852;-61
2022/11/02 06:10:41;;;;;;;65.60;27.70;;;;;;;4.28;73.53;99454.34;105820;1314;22292;-60
2022/11/02 06:13:08;;;;;;;70.10;26.30;;;;;;;4.33;73.14;99457.33;105743;1314;22155;-60
2022/11/02 06:15:35;;;;;;;60.40;28.00;;;;;;;4.38;73.12;99456.21;105475;1315;139785;-60
2022/11/02 06:18:02;;;;;;;57.20;26.50;;;;;;;4.45;73.13;99456.45;105773;1314;22235;-60
2022/11/02 06:20:28;;;;;;;;;;;;;;;4.53;73.03;99459.39;105721;1306;138883;-60
2022/11/02 06:22:55;;;;;;;51.00;23.30;;;;;;;4.62;72.90;99462.86;105840;1314;22128;-60
2022/11/02 06:25:22;;;;;;;;;;;;;;;4.72;72.53;99468.41;105745;1305;22462;-60
2022/11/02 06:27:54;;;;;;;54.10;27.00;;;;;;;4.78;72.29;99452.83;105738;1314;123685;-61
2022/11/02 06:30:23;;;;;;;52.10;24.80;;;;;;;4.90;71.94;99452.52;105823;1300;22156;-60
2022/11/02 06:32:51;;;;;;;149.50;74.20;;;;;;;4.99;71.61;99450.59;105731;1314;138261;-61
2022/11/02 06:35:18;;;;;;;68.50;34.90;;;;;;;5.10;71.46;99451.77;105840;1305;22310;-61
2022/11/02 06:37:45;;;;;;;53.20;23.50;;;;;;;5.21;70.99;99457.04;105805;1314;22133;-61
2022/11/02 06:40:12;;;;;;;;;;;;;;;5.33;70.57;99458.23;105317;1307;22396;-61
2022/11/02 06:42:39;;;;;;;43.20;21.00;;;;;;;5.44;69.77;99455.75;105839;1299;22149;-61
2022/11/02 06:45:16;;;;;;;41.50;20.60;;;;;;;5.54;69.39;99452.16;105620;1299;138116;-61
2022/11/02 06:47:43;;;;;;;44.00;21.40;;;;;;;5.61;68.96;99455.23;105715;1314;22360;-61
2022/11/02 06:50:09;;;;;;;42.90;21.10;;;;;;;5.69;68.92;99453.77;105637;1308;136934;-61
2022/11/02 06:52:41;;;;;;;51.30;24.70;;;;;;;5.78;68.71;99462.54;105770;1314;22228;-61
2022/11/02 06:55:08;;;;;;;46.40;24.90;;;;;;;5.85;68.65;99465.44;105753;1314;22452;-61
2022/11/02 06:57:35;;;;;;;;;;;;;;;5.92;68.40;99462.97;105641;1314;138704;-61
2022/11/02 07:00:07;;;;;;;44.90;20.90;;;;;;;5.98;67.55;99464.83;105762;1314;22145;-61
2022/11/02 07:02:35;;;;;;;53.30;21.80;;;;;;;6.03;66.92;99467.67;105736;1314;137733;-61
2022/11/02 07:05:01;;;;;;;;;;;;;;;6.08;66.96;99469.27;105775;1308;22398;-61
2022/11/02 07:07:28;;;;;;;37.40;18.30;;;;;;;6.13;66.79;99468.66;105745;1298;22266;-61
2022/11/02 07:09:55;;;;;;;46.20;20.90;;;;;;;6.19;66.93;99471.05;105695;1314;138866;-61
2022/11/02 07:12:22;;;;;;;55.00;24.50;;;;;;;6.27;66.83;99470.65;105766;1314;22342;-61
2022/11/02 07:14:48;;;;;;;70.20;26.90;;;;;;;6.35;66.40;99475.57;105746;1282;136729;-61
2022/11/02 07:17:15;;;;;;;72.10;27.70;;;;;;;6.43;66.36;99475.61;105781;1314;22145;-61
2022/11/02 07:19:42;;;;;;;63.30;25.80;;;;;;;6.52;66.23;99478.33;105839;1300;22327;-61
2022/11/02 07:22:09;;;;;;;56.10;24.30;;;;;;;6.61;66.26;99475.86;105613;1300;139087;-61
2022/11/02 07:24:35;;;;;;;51.50;24.10;;;;;;;6.71;65.77;99475.44;105741;1299;22206;-61
2022/11/02 07:27:02;;;;;;;53.20;23.30;;;;;;;6.81;65.56;99477.85;105659;1314;137282;-62
2022/11/02 07:29:29;;;;;;;;;;;;;;;6.91;65.48;99472.17;106434;1306;22361;-61
2022/11/02 07:31:56;;;;;;;60.60;25.30;;;;;;;7.00;65.24;99468.92;106380;1297;123302;-61
2022/11/02 07:34:22;;;;;;;;;;;;;;;7.11;64.96;99472.48;106426;1299;23057;-61
2022/11/02 07:36:49;;;;;;;62.90;24.20;;;;;;;7.20;64.61;99468.35;106444;1307;22258;-62
2022/11/02 07:39:17;;;;;;;63.20;27.70;;;;;;;7.28;64.25;99464.19;106276;1290;137157;-61
2022/11/02 07:41:44;;;;;;;70.20;27.30;;;;;;;7.37;63.90;99462.52;106414;1307;22117;-61
2022/11/02 07:44:17;;;;;;;75.40;30.80;;;;;;;7.46;63.67;99462.40;106359;1306;138469;-61
2022/11/02 07:46:51;;;;;;;91.60;36.20;;;;;;;7.54;63.17;99453.22;106491;1308;22146;-61
2022/11/02 07:49:18;;;;;;;;;;;;;;;7.59;62.89;99451.08;106483;1300;23388;-64
2022/11/02 07:51:47;;;;;;;74.70;31.50;;;;;;;7.64;62.80;99444.61;106378;1298;122822;-61
2022/11/02 07:54:14;;;;;;;63.60;26.60;;;;;;;7.70;62.65;99443.90;106485;1307;22140;-61
2022/11/02 07:56:41;;;;;;;;;;;;;;;7.75;62.35;99446.35;106360;1307;138305;-61
2022/11/02 07:59:09;;;;;;;61.10;26.00;;;;;;;7.80;62.52;99440.27;106393;1306;22227;-61
2022/11/02 08:01:36;;;;;;;52.90;24.40;;;;;;;7.87;62.25;99440.66;106453;1306;22233;-61
2022/11/02 08:04:03;;;;;;;;;;;;;;;7.94;62.06;99441.02;106377;1306;137594;-61
2022/11/02 08:06:29;;;;;;;39.30;20.90;;;;;;;8.00;62.05;99440.37;106469;1306;22208;-61
2022/11/02 08:08:56;;;;;;;41.60;20.60;;;;;;;8.08;61.79;99442.41;106316;1299;137131;-61
2022/11/02 08:11:23;;;;;;;;;;;;;;;8.18;61.70;99447.53;106461;1307;22385;-61
2022/11/02 08:13:49;;;;;;;44.50;19.80;;;;;;;8.27;61.60;99446.98;106402;1307;123360;-60
2022/11/02 08:16:16;;;;;;;37.40;19.50;;;;;;;8.35;61.00;99445.59;106419;1307;22183;-61
2022/11/02 08:18:43;;;;;;;;;;;;;;;8.45;60.65;99447.82;106490;1306;22440;-63
2022/11/02 08:21:10;;;;;;;38.10;19.90;;;;;;;8.54;60.53;99451.87;106012;1291;123729;-64
2022/11/02 08:23:36;;;;;;;39.70;21.20;;;;;;;8.61;60.37;99454.98;106397;1284;22164;-64
2022/11/02 08:26:03;;;;;;;47.50;20.90;;;;;;;8.69;60.07;99452.87;106069;1299;137725;-63
2022/11/02 08:28:31;;;;;;;;;;;;;;;8.76;59.84;99454.20;106481;1284;22379;-64
2022/11/02 08:30:58;;;;;;;38.90;20.40;;;;;;;8.83;59.96;99454.40;106448;1292;22301;-64
2022/11/02 08:33:24;;;;;;;50.80;22.60;;;;;;;8.89;60.13;99448.90;106359;1306;137438;-63
2022/11/02 08:35:52;;;;;;;56.70;24.70;;;;;;;8.95;60.19;99444.52;106442;1306;22269;-63
2022/11/02 08:38:22;;;;;;;53.90;25.20;;;;;;;9.01;59.60;99448.05;106330;1292;139437;-64
2022/11/02 08:40:48;;;;;;;49.60;24.80;;;;;;;9.07;59.55;99444.17;106456;1277;22180;-64
2022/11/02 08:43:15;;;;;;;45.30;23.50;;;;;;;9.10;59.44;99436.42;106439;1277;22182;-64
2022/11/02 08:45:43;;;;;;;;;;;;;;;9.16;59.17;99438.75;106325;1292;137363;-64
2022/11/02 08:48:30;;;;;;;37.90;20.20;;;;;;;9.22;59.47;99433.28;106466;1294;22976;-64
2022/11/02 08:50:57;;;;;;;38.60;19.90;;;;;;;9.23;59.09;99428.83;106360;1284;137219;-64
2022/11/02 08:53:24;;;;;;;;;;;;;;;9.32;58.95;99435.32;106427;1293;22325;-64
2022/11/02 08:55:50;;;;;;;37.70;19.60;;;;;;;9.36;59.04;99430.98;106361;1307;123413;-64
2022/11/02 08:58:17;;;;;;;;;;;;;;;9.40;59.08;99431.30;106516;1307;22398;-63
2022/11/02 09:00:44;;;;;;;40.30;19.70;;;;;;;9.44;58.35;99429.77;106466;1307;22173;-63
2022/11/02 09:03:11;;;;;;;;;;;;;;;9.47;58.07;99429.11;106411;1300;137410;-64
2022/11/02 09:05:42;;;;;;;40.30;20.60;;;;;;;9.50;58.03;99421.37;106474;1307;22895;-62
2022/11/02 09:08:16;;;;;;;39.70;19.40;;;;;;;9.54;57.66;99416.92;106371;1307;138290;-64
2022/11/02 09:10:45;;;;;;;39.20;19.90;;;;;;;9.54;57.38;99412.59;106531;1283;22919;-63
2022/11/02 09:13:13;;;;;;;46.30;22.90;;;;;;;9.59;57.38;99413.08;106469;1308;22178;-64
2022/11/02 09:15:39;;;;;;;41.30;21.00;;;;;;;9.63;57.19;99409.83;106350;1298;137603;-64
2022/11/02 09:18:06;;;;;;;47.50;21.60;;;;;;;9.68;57.13;99408.84;106517;1307;22104;-65
2022/11/02 09:20:34;;;;;;;44.30;22.40;;;;;;;9.73;56.85;99409.48;106367;1290;137564;-64
2022/11/02 09:23:00;;;;;;;;;;;;;;;9.77;56.83;99409.06;106467;1307;22351;-64
2022/11/02 09:25:27;;;;;;;35.40;19.70;;;;;;;9.82;56.68;99410.08;106449;1307;22192;-64
2022/11/02 09:27:54;;;;;;;;;;;;;;;9.86;56.81;99409.48;106372;1307;137599;-64
2022/11/02 09:30:22;;;;;;;38.90;20.20;;;;;;;9.91;56.82;99412.91;106462;1300;22159;-64
2022/11/02 09:33:02;;;;;;;39.00;19.60;;;;;;;9.98;56.39;99414.98;106389;1308;138277;-64
2022/11/02 09:35:31;;;;;;;38.30;20.00;;;;;;;10.06;55.91;99409.31;105880;1307;25223;-64
2022/11/02 09:37:58;;;;;;;42.50;20.80;;;;;;;10.11;55.77;99406.46;106028;1315;138501;-64
2022/11/02 09:40:31;;;;;;;34.30;19.90;;;;;;;10.15;55.51;99402.96;106462;1300;22239;-63
2022/11/02 09:43:07;;;;;;;37.10;19.50;;;;;;;10.20;55.50;99400.27;106471;1298;22910;-63
2022/11/02 09:46:04;;;;;;;39.70;21.20;;;;;;;10.26;55.43;99401.84;106374;1308;137607;-63
2022/11/02 09:48:37;;;;;;;37.50;20.80;;;;;;;10.35;55.40;99401.49;106323;1307;22129;-63
2022/11/02 09:51:15;;;;;;;37.70;20.30;;;;;;;10.41;55.61;99397.77;106256;1296;138056;-63
2022/11/02 09:53:41;;;;;;;;;;;;;;;10.47;55.15;99399.03;106512;1308;23843;-63
2022/11/02 09:56:08;;;;;;;37.40;18.20;;;;;;;10.53;54.84;99397.64;106393;1307;123788;-64
2022/11/02 09:58:37;;;;;;;36.00;20.20;;;;;;;10.58;54.86;99397.25;106441;1308;22346;-63
2022/11/02 10:01:43;;;;;;;39.30;24.20;;;;;;;10.65;54.49;99399.60;106480;1307;22218;-63
2022/11/02 10:04:25;;;;;;;35.60;20.40;;;;;;;10.73;54.35;99405.37;106351;1306;138095;-62
2022/11/02 10:06:57;;;;;;;105.70;56.30;;;;;;;10.81;54.58;99401.45;103177;1300;22918;-62
2022/11/02 10:10:07;;;;;;;44.40;23.60;;;;;;;10.87;54.32;99399.58;105971;1315;137893;-61
2022/11/02 10:12:51;;;;;;;34.00;19.50;;;;;;;10.92;53.92;99396.40;106066;1312;23600;-61
2022/11/02 10:15:49;;;;;;;38.50;20.90;;;;;;;10.96;53.91;99396.80;105905;1312;138943;-61
2022/11/02 10:18:22;;;;;;;41.80;19.60;;;;;;;11.01;54.05;99396.71;105338;1319;22180;-61
2022/11/02 10:20:50;;;;;;;39.20;20.00;;;;;;;11.07;53.58;99400.58;105292;1302;138138;-61
2022/11/02 10:23:29;;;;;;;33.80;19.60;;;;;;;11.13;53.33;99401.42;105250;1318;22255;-61
2022/11/02 10:25:56;;;;;;;31.30;17.10;;;;;;;11.17;53.28;99399.71;105182;1318;138691;-60
2022/11/02 10:28:26;;;;;;;;;;;;;;;11.21;53.36;99401.04;105283;1310;23128;-60
2022/11/02 10:30:53;;;;;;;42.10;22.10;;;;;;;11.24;53.13;99402.27;105194;1304;22209;-61
2022/11/02 10:33:28;;;;;;;34.90;19.50;;;;;;;11.27;53.12;99395.81;105215;1315;137733;-61
2022/11/02 10:36:27;;;;;;;40.40;20.80;;;;;;;11.30;53.23;99395.29;105361;1317;22321;-61
2022/11/02 10:39:22;;;;;;;35.50;21.20;;;;;;;11.33;53.20;99391.48;105227;1314;139107;-61
2022/11/02 10:42:08;;;;;;;29.00;17.50;;;;;;;11.34;53.31;99392.54;100860;1313;22485;-60
2022/11/02 10:45:05;;;;;;;52.90;29.70;;;;;;;11.35;53.40;99395.21;100755;1313;137651;-60
2022/11/02 10:47:39;;;;;;;30.80;19.90;;;;;;;11.36;53.26;99399.74;100775;1299;22889;-60
2022/11/02 10:50:23;;;;;;;29.70;18.40;;;;;;;11.36;53.21;99400.30;105463;1314;138309;-60
2022/11/02 10:52:50;;;;;;;35.30;19.70;;;;;;;11.35;53.11;99404.22;105872;1305;22187;-60
2022/11/02 10:55:27;;;;;;;44.00;20.90;;;;;;;11.35;53.13;99400.51;106069;1295;22464;-60
2022/11/02 10:57:54;;;;;;;34.60;18.30;;;;;;;11.37;53.32;99397.36;106257;1292;138358;-61
2022/11/02 11:00:24;;;;;;;32.50;19.90;;;;;;;11.38;53.47;99398.07;106214;1306;22275;-60
2022/11/02 11:03:14;;;;;;;39.40;20.10;;;;;;;11.39;53.57;99395.29;106342;1308;139131;-61
2022/11/02 11:05:50;;;;;;;43.70;21.10;;;;;;;11.42;53.86;99393.92;106487;1308;22207;-62
2022/11/02 11:08:36;;;;;;;41.50;20.70;;;;;;;11.44;53.70;99396.94;106531;1303;139131;-61
2022/11/02 11:11:13;;;;;;;39.20;19.90;;;;;;;11.49;53.63;99392.81;106613;1281;22222;-61
2022/11/02 11:13:45;;;;;;;38.00;21.70;;;;;;;11.52;53.64;99392.52;106615;1305;22276;-61
2022/11/02 11:16:35;;;;;;;37.60;19.20;;;;;;;11.55;53.78;99390.65;106593;1304;22461;-60
2022/11/02 11:19:03;;;;;;;178.60;96.30;;;;;;;11.60;53.92;99386.47;106638;1304;22269;-59
2022/11/02 11:21:50;;;;;;;52.20;28.90;;;;;;;11.67;53.97;99386.84;106516;1304;138436;-61
2022/11/02 11:24:19;;;;;;;;;;;;;;;11.71;53.72;99388.46;106635;1296;22445;-61
2022/11/02 11:27:12;;;;;;;30.10;16.70;;;;;;;11.75;53.67;99384.11;106626;1294;124156;-61
2022/11/02 11:29:40;;;;;;;27.40;14.20;;;;;;;11.80;53.60;99383.02;106590;1304;22169;-61
2022/11/02 11:32:26;;;;;;;32.30;15.00;;;;;;;11.85;53.50;99380.34;106540;1304;139253;-61
2022/11/02 11:35:05;;;;;;;26.10;14.40;;;;;;;11.89;53.61;99380.63;106620;1304;22206;-61
2022/11/02 11:37:31;;;;;;;27.00;14.50;;;;;;;11.91;53.19;99381.62;106632;1297;23981;-61
2022/11/02 11:40:03;;;;;;;45.60;22.50;;;;;;;11.92;53.36;99378.23;106431;1290;138135;-64
2022/11/02 11:42:32;;;;;;;35.30;19.20;;;;;;;11.93;53.33;99375.67;106619;1305;22142;-60
2022/11/02 11:45:23;;;;;;;31.90;16.40;;;;;;;11.94;53.36;99376.45;106517;1304;137996;-59
2022/11/02 11:48:23;;;;;;;32.90;16.40;;;;;;;11.94;53.21;99378.58;106619;1296;22184;-60
2022/11/02 11:50:49;;;;;;;24.50;15.00;;;;;;;11.95;53.34;99374.80;106043;1308;137744;-60
2022/11/02 11:53:23;;;;;;;27.10;15.00;;;;;;;11.96;53.54;99373.33;106414;1308;23444;-61
2022/11/02 11:55:51;;;;;;;28.30;14.90;;;;;;;11.98;53.11;99372.71;106264;1309;22975;-60
2022/11/02 11:58:20;;;;;;;39.00;18.50;;;;;;;11.99;53.07;99375.45;106205;1308;137562;-58